Time;durP1;ratioP1;P1;durP2;ratioP2;P2;SDS_P1;SDS_P2;PMS_P1;PMS_P2;Temp;Humidity;BMP_temperature;BMP_pressure;BME280_temperature;BME280_humidity;BME280_pressure;Samples;Min_cycle;Max_cycle;Signal;HPM_P1;HPM_P2
2022/07/31 00:02:12;;;;;;;5.47;3.30;;;19.60;1.00;;;;;;7371456;19;20070;-68
2022/07/31 00:04:42;;;;;;;4.05;3.47;;;19.50;1.00;;;;;;7371137;19;20449;-68
2022/07/31 00:07:12;;;;;;;5.85;3.50;;;19.50;1.00;;;;;;7369440;19;20350;-68
2022/07/31 00:09:41;;;;;;;7.40;3.50;;;19.50;1.00;;;;;;7393984;19;20462;-68
2022/07/31 00:12:23;;;;;;;5.93;3.70;;;19.50;1.00;;;;;;7371267;19;20389;-67
2022/07/31 00:14:53;;;;;;;4.57;3.60;;;19.40;1.00;;;;;;7370402;19;20046;-67
2022/07/31 00:17:26;;;;;;;3.33;3.03;;;19.40;1.00;;;;;;7371193;19;20006;-67
2022/07/31 00:19:55;;;;;;;6.65;3.58;;;19.40;1.00;;;;;;7370890;19;20023;-68
2022/07/31 00:22:25;;;;;;;5.25;3.63;;;19.40;1.00;;;;;;7370003;19;20017;-68
2022/07/31 00:24:55;;;;;;;3.83;3.47;;;19.30;1.00;;;;;;7392306;19;20367;-68
2022/07/31 00:27:25;;;;;;;5.10;3.95;;;19.20;1.00;;;;;;7369117;19;20086;-67
2022/07/31 00:29:55;;;;;;;4.22;3.83;;;19.30;1.00;;;;;;7370059;19;20497;-67
2022/07/31 00:32:28;;;;;;;4.30;3.83;;;19.30;1.00;;;;;;7372289;19;20013;-68
2022/07/31 00:34:57;;;;;;;7.20;4.28;;;19.30;1.00;;;;;;7370501;19;20081;-67
2022/07/31 00:37:27;;;;;;;4.90;3.75;;;19.30;1.00;;;;;;7369071;19;20015;-67
2022/07/31 00:39:57;;;;;;;4.13;3.72;;;19.20;1.00;;;;;;7392763;19;20590;-68
2022/07/31 00:42:28;;;;;;;5.63;4.50;;;19.20;1.00;;;;;;7370014;19;20432;-67
2022/07/31 00:44:58;;;;;;;5.30;3.33;;;19.10;1.00;;;;;;7369534;19;20098;-68
2022/07/31 00:47:30;;;;;;;8.05;4.28;;;19.10;1.00;;;;;;7370393;19;20085;-67
2022/07/31 00:50:00;;;;;;;5.70;3.92;;;19.20;1.00;;;;;;7370365;19;20147;-66
2022/07/31 00:52:30;;;;;;;7.90;4.57;;;19.20;1.00;;;;;;7370048;19;20093;-67
2022/07/31 00:55:00;;;;;;;4.28;3.83;;;19.30;1.00;;;;;;7391440;19;20021;-67
2022/07/31 00:57:30;;;;;;;4.30;3.72;;;19.40;1.00;;;;;;7369092;19;20082;-67
2022/07/31 01:00:00;;;;;;;5.72;3.97;;;19.40;1.00;;;;;;7369819;19;20569;-67
2022/07/31 01:02:32;;;;;;;5.13;4.03;;;19.30;1.00;;;;;;7368933;19;19998;-68
2022/07/31 01:05:02;;;;;;;4.97;3.90;;;19.20;1.00;;;;;;7370782;19;20010;-68
2022/07/31 01:07:32;;;;;;;6.13;4.28;;;19.20;1.00;;;;;;7369812;19;20474;-68
2022/07/31 01:10:07;;;;;;;7.75;4.20;;;19.20;1.00;;;;;;7376925;19;20018;-69
2022/07/31 01:12:43;;;;;;;7.20;3.90;;;19.20;1.00;;;;;;7391490;19;20526;-68
2022/07/31 01:15:15;;;;;;;4.30;3.60;;;19.30;1.00;;;;;;7369290;19;20006;-67
2022/07/31 01:17:48;;;;;;;4.35;3.50;;;19.20;1.00;;;;;;7368890;19;20086;-68
2022/07/31 01:20:19;;;;;;;5.33;3.47;;;19.10;1.00;;;;;;7370920;19;20006;-68
2022/07/31 01:23:15;;;;;;;4.05;3.40;;;19.00;1.00;;;;;;7368408;19;20367;-68
2022/07/31 01:25:57;;;;;;;4.78;3.55;;;19.00;1.00;;;;;;7370371;19;20094;-68
2022/07/31 01:28:55;;;;;;;6.13;3.65;;;18.80;1.00;;;;;;7367965;19;20031;-68
2022/07/31 01:31:35;;;;;;;4.78;3.97;;;18.80;1.00;;;;;;7369931;19;20660;-67
2022/07/31 01:34:10;;;;;;;11.38;3.85;;;18.60;1.00;;;;;;7369923;19;20111;-67
2022/07/31 01:36:48;;;;;;;4.35;3.70;;;18.60;1.00;;;;;;7389425;19;20010;-68
2022/07/31 01:39:19;;;;;;;3.70;3.40;;;18.60;1.00;;;;;;7367461;19;20400;-67
2022/07/31 01:41:50;;;;;;;6.47;4.10;;;18.50;1.00;;;;;;7366808;19;20367;-68
2022/07/31 01:44:23;;;;;;;6.25;4.00;;;18.50;1.00;;;;;;7369247;19;20007;-67
2022/07/31 01:46:55;;;;;;;5.43;3.88;;;18.50;1.00;;;;;;7366782;19;20006;-67
2022/07/31 01:49:25;;;;;;;6.60;4.05;;;18.50;1.00;;;;;;7369016;19;20031;-68
2022/07/31 01:51:56;;;;;;;6.07;4.50;;;18.50;1.00;;;;;;7390528;19;20021;-68
2022/07/31 01:54:35;;;;;;;5.72;4.47;;;18.60;1.00;;;;;;7368896;19;20002;-68
2022/07/31 01:57:07;;;;;;;6.40;4.93;;;18.70;1.00;;;;;;7367166;19;20110;-68
2022/07/31 01:59:41;;;;;;;6.70;5.25;;;18.70;1.00;;;;;;7368891;19;20010;-68
2022/07/31 02:02:16;;;;;;;6.00;5.03;;;18.70;1.00;;;;;;7367855;19;20014;-67
2022/07/31 02:04:48;;;;;;;9.68;5.50;;;18.70;1.00;;;;;;7369540;19;20383;-67
2022/07/31 02:07:19;;;;;;;7.05;4.43;;;18.60;1.00;;;;;;7366971;19;20014;-67
2022/07/31 02:09:50;;;;;;;7.97;4.50;;;18.50;1.00;;;;;;7391093;19;20030;-68
2022/07/31 02:12:28;;;;;;;6.45;4.53;;;18.50;1.00;;;;;;7368259;19;20047;-68
2022/07/31 02:15:09;;;;;;;5.70;4.47;;;18.60;1.00;;;;;;7368156;19;20082;-69
2022/07/31 02:17:39;;;;;;;5.60;5.00;;;18.60;1.00;;;;;;7366389;19;20017;-67
2022/07/31 02:20:12;;;;;;;7.10;4.97;;;18.60;1.00;;;;;;7368430;19;20010;-68
2022/07/31 02:22:43;;;;;;;7.18;4.88;;;18.60;1.00;;;;;;7367802;19;20010;-67
2022/07/31 02:25:12;;;;;;;5.38;4.80;;;18.70;1.00;;;;;;7368147;19;20014;-68
2022/07/31 02:27:45;;;;;;;6.78;5.47;;;18.60;1.00;;;;;;7387374;19;20026;-66
2022/07/31 02:30:33;;;;;;;7.28;5.25;;;18.50;1.00;;;;;;7368721;19;20074;-68
2022/07/31 02:33:11;;;;;;;6.97;5.85;;;18.50;1.00;;;;;;7366898;19;20010;-66
2022/07/31 02:35:44;;;;;;;6.78;6.03;;;18.50;1.00;;;;;;7364899;19;20010;-68
2022/07/31 02:38:17;;;;;;;9.00;6.55;;;18.60;1.00;;;;;;7367642;19;20454;-68
2022/07/31 02:40:55;;;;;;;8.10;6.28;;;18.60;1.00;;;;;;7374029;19;20011;-67
2022/07/31 02:43:26;;;;;;;7.55;6.60;;;18.60;1.00;;;;;;7373444;19;20370;-68
2022/07/31 02:46:00;;;;;;;7.18;6.47;;;18.50;1.00;;;;;;7396264;19;20494;-68
2022/07/31 02:48:30;;;;;;;7.57;6.78;;;18.50;1.00;;;;;;7374908;19;20485;-68
2022/07/31 02:51:00;;;;;;;11.20;6.88;;;18.40;1.00;;;;;;7372856;19;20036;-68
2022/07/31 02:53:32;;;;;;;7.60;5.75;;;18.40;1.00;;;;;;7374990;19;20421;-68
2022/07/31 02:56:03;;;;;;;7.78;6.53;;;18.50;1.00;;;;;;7373754;19;20082;-68
2022/07/31 02:58:33;;;;;;;7.75;6.22;;;18.50;1.00;;;;;;7374510;19;20015;-68
2022/07/31 03:01:07;;;;;;;6.75;6.05;;;18.40;1.00;;;;;;7374468;19;20462;-69
2022/07/31 03:03:37;;;;;;;9.38;5.85;;;18.40;1.00;;;;;;7394648;19;20117;-68
2022/07/31 03:06:07;;;;;;;7.43;5.50;;;18.20;1.00;;;;;;7371831;19;20007;-67
2022/07/31 03:08:39;;;;;;;6.90;5.40;;;18.20;1.00;;;;;;7374597;19;20014;-67
2022/07/31 03:11:10;;;;;;;7.50;5.63;;;18.20;1.00;;;;;;7373456;19;20035;-67
2022/07/31 03:13:42;;;;;;;6.47;5.65;;;18.20;1.00;;;;;;7373529;19;20007;-68
2022/07/31 03:16:16;;;;;;;7.95;6.03;;;18.20;1.00;;;;;;7373048;19;20022;-67
2022/07/31 03:18:47;;;;;;;7.53;5.97;;;18.10;1.00;;;;;;7395633;19;20013;-67
2022/07/31 03:21:18;;;;;;;7.05;5.45;;;18.10;1.00;;;;;;7372950;19;20082;-67
2022/07/31 03:23:48;;;;;;;6.47;5.35;;;18.10;1.00;;;;;;7372209;19;20030;-68
2022/07/31 03:26:19;;;;;;;7.47;5.55;;;18.10;1.00;;;;;;7371875;19;20545;-68
2022/07/31 03:28:49;;;;;;;9.02;5.70;;;18.00;1.00;;;;;;7372974;19;20016;-67
2022/07/31 03:31:21;;;;;;;7.80;6.03;;;18.10;1.00;;;;;;7372827;19;20014;-67
2022/07/31 03:33:51;;;;;;;7.88;5.63;;;18.10;1.00;;;;;;7394537;19;20002;-67
2022/07/31 03:36:21;;;;;;;7.00;5.15;;;18.10;1.00;;;;;;7370946;19;20522;-68
2022/07/31 03:38:51;;;;;;;6.25;5.18;;;18.10;1.00;;;;;;7374206;19;20010;-68
2022/07/31 03:41:21;;;;;;;6.95;5.70;;;18.10;1.00;;;;;;7372076;19;20443;-68
2022/07/31 03:43:52;;;;;;;5.85;5.25;;;18.00;1.00;;;;;;7372629;19;20010;-68
2022/07/31 03:46:43;;;;;;;6.43;5.20;;;18.00;1.00;;;;;;7372223;19;20018;-66
2022/07/31 03:49:34;;;;;;;6.07;5.40;;;18.10;1.00;;;;;;7373507;19;20408;-67
2022/07/31 03:52:23;;;;;;;6.97;5.10;;;18.10;1.00;;;;;;7373894;19;20033;-69
2022/07/31 03:54:53;;;;;;;8.45;5.35;;;18.10;1.00;;;;;;7394653;19;20012;-67
2022/07/31 03:57:23;;;;;;;6.05;5.45;;;18.20;1.00;;;;;;7370864;19;20011;-67
2022/07/31 03:59:58;;;;;;;9.85;5.55;;;18.20;1.00;;;;;;7371161;19;20034;-67
2022/07/31 04:02:32;;;;;;;6.93;5.47;;;18.20;1.00;;;;;;7373023;19;20009;-67
2022/07/31 04:05:02;;;;;;;6.18;5.32;;;18.20;1.00;;;;;;7370831;19;20081;-67
2022/07/31 04:07:38;;;;;;;7.13;5.40;;;18.10;1.00;;;;;;7370977;19;20350;-67
2022/07/31 04:10:09;;;;;;;6.50;5.32;;;18.10;1.00;;;;;;7372442;19;20022;-67
2022/07/31 04:12:39;;;;;;;7.78;5.55;;;18.10;1.00;;;;;;7394230;19;20496;-67
2022/07/31 04:15:10;;;;;;;6.70;5.22;;;18.10;1.00;;;;;;7371234;19;20011;-67
2022/07/31 04:17:42;;;;;;;5.20;4.65;;;18.20;1.00;;;;;;7370793;19;20011;-68
2022/07/31 04:20:13;;;;;;;9.38;5.85;;;18.30;1.00;;;;;;7372462;19;20010;-68
2022/07/31 04:22:43;;;;;;;5.75;5.10;;;18.40;1.00;;;;;;7370251;19;20066;-68
2022/07/31 04:25:12;;;;;;;6.18;4.85;;;18.40;1.00;;;;;;7370098;19;20021;-67
2022/07/31 04:27:42;;;;;;;6.70;4.85;;;18.50;1.00;;;;;;7390017;19;20092;-67
2022/07/31 04:30:17;;;;;;;7.72;5.30;;;18.90;1.00;;;;;;7370218;19;20010;-67
2022/07/31 04:32:50;;;;;;;6.72;4.75;;;18.90;1.00;;;;;;7370688;19;20066;-68
2022/07/31 04:35:20;;;;;;;5.50;4.95;;;18.90;1.00;;;;;;7371375;19;20035;-66
2022/07/31 04:37:50;;;;;;;6.47;4.93;;;19.20;1.00;;;;;;7369693;19;20034;-67
2022/07/31 04:40:20;;;;;;;7.97;4.80;;;19.30;1.00;;;;;;7371874;19;20013;-67
2022/07/31 04:42:50;;;;;;;5.75;5.05;;;20.40;1.00;;;;;;7392523;19;20351;-67
2022/07/31 04:45:20;;;;;;;6.40;5.10;;;20.90;1.00;;;;;;7368817;19;20013;-68
2022/07/31 04:47:52;;;;;;;5.30;4.70;;;21.80;1.00;;;;;;7368823;19;20519;-68
2022/07/31 04:50:23;;;;;;;5.43;4.90;;;22.50;1.00;;;;;;7371547;19;20082;-68
2022/07/31 04:52:52;;;;;;;7.30;4.50;;;22.80;1.00;;;;;;7370005;19;20085;-67
2022/07/31 04:55:23;;;;;;;4.93;4.40;;;22.60;1.00;;;;;;7371504;19;20078;-67
2022/07/31 04:57:52;;;;;;;6.70;5.07;;;22.00;1.00;;;;;;7391982;19;20009;-68
2022/07/31 05:00:23;;;;;;;5.30;4.80;;;22.70;1.00;;;;;;7370506;19;20478;-67
2022/07/31 05:02:56;;;;;;;5.20;4.70;;;22.80;1.00;;;;;;7366224;19;20588;-68
2022/07/31 05:05:25;;;;;;;5.95;4.80;;;23.60;1.00;;;;;;7368667;19;20017;-68
2022/07/31 05:07:55;;;;;;;7.47;4.90;;;23.90;1.00;;;;;;7370260;19;20094;-68
2022/07/31 05:13:10;;;;;;;7.05;5.20;;;26.00;1.00;;;;;;7367657;19;20014;-67
2022/07/31 05:15:40;;;;;;;5.15;4.68;;;25.30;1.00;;;;;;7391197;19;20484;-68
2022/07/31 05:18:13;;;;;;;6.05;4.75;;;25.70;1.00;;;;;;7369499;19;20023;-67
2022/07/31 05:20:42;;;;;;;8.52;5.03;;;25.20;1.00;;;;;;7371112;19;20074;-66
2022/07/31 05:23:12;;;;;;;6.03;4.95;;;23.30;1.00;;;;;;7367898;19;20017;-67
2022/07/31 05:25:42;;;;;;;5.88;4.63;;;21.80;1.00;;;;;;7366829;19;20052;-68
2022/07/31 05:28:12;;;;;;;6.40;5.03;;;21.00;1.00;;;;;;7369063;19;20015;-68
2022/07/31 05:30:42;;;;;;;5.68;4.82;;;20.50;1.00;;;;;;7391178;19;20073;-67
2022/07/31 05:33:14;;;;;;;7.05;5.15;;;20.40;1.00;;;;;;7368138;19;20393;-67
2022/07/31 05:35:45;;;;;;;6.40;4.70;;;20.30;1.00;;;;;;7369306;19;20018;-67
2022/07/31 05:38:14;;;;;;;7.85;5.70;;;20.20;1.00;;;;;;7369130;19;20131;-67
2022/07/31 05:40:44;;;;;;;5.88;4.63;;;20.10;1.00;;;;;;7368496;19;20014;-67
2022/07/31 05:43:14;;;;;;;6.63;5.05;;;20.00;1.00;;;;;;7369354;19;20485;-68
2022/07/31 05:45:45;;;;;;;5.07;4.57;;;20.10;1.00;;;;;;7389585;19;20085;-68
2022/07/31 05:48:18;;;;;;;5.43;4.80;;;20.00;1.00;;;;;;7367593;19;20086;-67
2022/07/31 05:50:50;;;;;;;5.57;5.07;;;20.00;1.00;;;;;;7368047;19;20023;-68
2022/07/31 05:53:20;;;;;;;6.45;5.10;;;19.80;1.00;;;;;;7368501;19;20027;-67
2022/07/31 05:55:51;;;;;;;6.28;4.78;;;19.90;1.00;;;;;;7368668;19;20086;-68
2022/07/31 05:58:22;;;;;;;5.03;4.40;;;20.00;1.00;;;;;;7368617;19;20432;-68
2022/07/31 06:00:52;;;;;;;7.03;5.13;;;20.20;1.00;;;;;;7390789;19;20025;-67
2022/07/31 06:03:28;;;;;;;5.78;4.75;;;20.30;1.00;;;;;;7367020;19;20021;-68
2022/07/31 06:05:58;;;;;;;5.97;4.60;;;20.50;1.00;;;;;;7365985;19;20010;-68
2022/07/31 06:08:28;;;;;;;6.97;4.97;;;20.40;1.00;;;;;;7368153;19;20019;-68
2022/07/31 06:10:58;;;;;;;5.65;4.95;;;20.50;1.00;;;;;;7367335;19;20377;-67
2022/07/31 06:13:30;;;;;;;8.85;5.15;;;20.60;1.00;;;;;;7369281;19;20010;-70
2022/07/31 06:15:59;;;;;;;4.78;4.38;;;20.60;1.00;;;;;;7395974;19;20014;-68
2022/07/31 06:18:32;;;;;;;8.10;5.40;;;20.70;1.00;;;;;;7375503;19;20015;-67
2022/07/31 06:21:02;;;;;;;8.93;4.57;;;20.90;1.00;;;;;;7371976;19;20017;-67
2022/07/31 06:23:32;;;;;;;7.00;4.70;;;21.10;1.00;;;;;;7374464;19;20018;-68
2022/07/31 06:26:02;;;;;;;8.50;5.15;;;21.10;1.00;;;;;;7372457;19;20105;-67
2022/07/31 06:28:32;;;;;;;8.05;4.78;;;21.10;1.00;;;;;;7374691;19;20506;-67
2022/07/31 06:31:19;;;;;;;5.43;4.25;;;20.80;1.00;;;;;;7374914;19;20034;-67
2022/07/31 06:33:52;;;;;;;5.22;4.72;;;21.10;1.00;;;;;;7396779;19;20086;-67
2022/07/31 06:36:21;;;;;;;7.85;4.65;;;21.10;1.00;;;;;;7372281;19;20010;-68
2022/07/31 06:38:51;;;;;;;6.05;4.35;;;21.10;1.00;;;;;;7374802;19;20010;-68
2022/07/31 06:44:04;;;;;;;5.10;4.18;;;21.30;1.00;;;;;;7374113;19;20081;-68
2022/07/31 06:46:34;;;;;;;5.45;4.13;;;21.30;1.00;;;;;;7372728;19;20082;-68
2022/07/31 06:49:08;;;;;;;6.15;4.25;;;21.70;1.00;;;;;;7375146;19;20022;-68
2022/07/31 06:51:38;;;;;;;8.18;4.50;;;21.80;1.00;;;;;;7395901;19;20017;-68
2022/07/31 06:54:10;;;;;;;4.88;4.07;;;21.80;1.00;;;;;;7374473;19;20102;-67
2022/07/31 06:56:41;;;;;;;8.77;3.80;;;21.80;1.00;;;;;;7371219;19;20363;-68
2022/07/31 06:59:11;;;;;;;4.93;4.05;;;21.90;1.00;;;;;;7373658;19;20013;-66
2022/07/31 07:01:41;;;;;;;6.15;4.00;;;21.70;1.00;;;;;;7374325;19;20015;-67
2022/07/31 07:04:14;;;;;;;7.43;4.07;;;21.60;1.00;;;;;;7374452;19;20031;-68
2022/07/31 07:06:44;;;;;;;4.30;3.75;;;22.10;1.00;;;;;;7393062;19;20017;-66
2022/07/31 07:09:13;;;;;;;9.32;4.22;;;22.30;1.00;;;;;;7373301;19;20086;-67
2022/07/31 07:11:43;;;;;;;4.43;3.92;;;21.90;1.00;;;;;;7373255;19;20010;-67
2022/07/31 07:14:13;;;;;;;5.20;3.60;;;21.90;1.00;;;;;;7373175;19;20430;-67
2022/07/31 07:16:43;;;;;;;7.00;4.30;;;22.40;1.00;;;;;;7372171;19;20014;-67
2022/07/31 07:19:16;;;;;;;4.15;3.33;;;22.70;1.00;;;;;;7373212;19;20007;-68
2022/07/31 07:21:46;;;;;;;3.88;3.58;;;22.50;1.00;;;;;;7395155;19;20031;-68
2022/07/31 07:24:18;;;;;;;5.07;4.18;;;22.50;1.00;;;;;;7371050;19;20077;-67
2022/07/31 07:26:48;;;;;;;5.45;4.25;;;22.10;1.00;;;;;;7368835;19;20357;-68
2022/07/31 07:29:18;;;;;;;6.10;3.85;;;21.80;1.00;;;;;;7372261;19;20085;-67
2022/07/31 07:31:48;;;;;;;4.07;3.65;;;22.40;1.00;;;;;;7373196;19;20081;-68
2022/07/31 07:34:21;;;;;;;4.20;3.70;;;22.70;1.00;;;;;;7372895;19;20482;-68
2022/07/31 07:36:51;;;;;;;7.13;3.58;;;22.70;1.00;;;;;;7393699;19;20010;-66
2022/07/31 07:39:21;;;;;;;4.55;4.00;;;23.20;1.00;;;;;;7371765;19;20018;-67
2022/07/31 07:41:52;;;;;;;5.93;3.80;;;23.10;1.00;;;;;;7372659;19;20014;-67
2022/07/31 07:44:21;;;;;;;5.28;3.88;;;22.80;1.00;;;;;;7372164;19;20006;-68
2022/07/31 07:46:51;;;;;;;7.30;3.50;;;22.90;1.00;;;;;;7370593;19;20007;-66
2022/07/31 07:49:24;;;;;;;6.25;3.55;;;23.30;1.00;;;;;;7373269;19;20490;-67
2022/07/31 07:51:54;;;;;;;4.28;3.13;;;23.50;1.00;;;;;;7394396;19;20085;-67
2022/07/31 07:54:29;;;;;;;5.50;3.40;;;23.30;1.00;;;;;;7371729;19;20015;-67
2022/07/31 07:56:58;;;;;;;6.40;3.70;;;23.10;1.00;;;;;;7369657;19;20082;-67
2022/07/31 07:59:29;;;;;;;5.63;3.53;;;22.90;1.00;;;;;;7370488;19;20105;-67
2022/07/31 08:01:58;;;;;;;4.57;3.53;;;23.20;1.00;;;;;;7371106;19;20720;-67
2022/07/31 08:04:31;;;;;;;6.80;3.40;;;22.80;1.00;;;;;;7371354;19;20769;-67
2022/07/31 08:07:02;;;;;;;6.55;3.38;;;22.60;1.00;;;;;;7391568;19;20014;-68
2022/07/31 08:09:32;;;;;;;8.63;3.47;;;22.80;1.00;;;;;;7372044;19;20083;-67
2022/07/31 08:12:02;;;;;;;4.95;3.20;;;23.10;1.00;;;;;;7370884;19;20030;-67
2022/07/31 08:14:32;;;;;;;4.88;3.25;;;23.70;1.00;;;;;;7370819;19;20007;-68
2022/07/31 08:17:02;;;;;;;4.50;3.38;;;24.10;1.00;;;;;;7370328;19;20010;-67
2022/07/31 08:19:35;;;;;;;5.50;3.40;;;24.00;1.00;;;;;;7371370;19;20078;-67
2022/07/31 08:22:05;;;;;;;3.60;3.30;;;23.90;1.00;;;;;;7371122;19;20021;-68
2022/07/31 08:24:37;;;;;;;4.72;3.30;;;24.00;1.00;;;;;;7392881;19;20059;-68
2022/07/31 08:29:50;;;;;;;5.07;3.40;;;24.40;1.00;;;;;;7370197;19;20018;-69
2022/07/31 08:32:20;;;;;;;4.60;3.28;;;24.30;1.00;;;;;;7371374;19;20021;-67
2022/07/31 08:34:53;;;;;;;7.57;3.55;;;24.80;1.00;;;;;;7371159;19;20082;-66
2022/07/31 08:37:23;;;;;;;4.38;3.15;;;24.40;1.00;;;;;;7368880;19;20018;-68
2022/07/31 08:40:16;;;;;;;5.95;2.92;;;24.20;1.00;;;;;;7371050;19;20010;-67
2022/07/31 08:42:47;;;;;;;5.05;3.30;;;24.70;1.00;;;;;;7391912;19;20016;-67
2022/07/31 08:45:17;;;;;;;3.92;3.28;;;25.00;1.00;;;;;;7369870;19;20086;-67
2022/07/31 08:47:49;;;;;;;3.35;2.90;;;25.00;1.00;;;;;;7368595;19;20018;-68
2022/07/31 08:50:22;;;;;;;3.75;2.58;;;24.80;1.00;;;;;;7371166;19;20002;-67
2022/07/31 08:52:54;;;;;;;3.05;2.38;;;25.30;1.00;;;;;;7369921;19;20481;-68
2022/07/31 08:55:24;;;;;;;4.55;2.72;;;25.80;1.00;;;;;;7370118;19;20094;-68
2022/07/31 08:58:14;;;;;;;3.67;2.70;;;25.70;1.00;;;;;;7370326;19;20014;-68
2022/07/31 09:00:44;;;;;;;4.15;2.90;;;25.70;1.00;;;;;;7390652;19;20104;-66
2022/07/31 09:03:14;;;;;;;3.70;2.80;;;25.60;1.00;;;;;;7369298;19;20035;-67
2022/07/31 09:05:47;;;;;;;3.15;2.50;;;26.00;1.00;;;;;;7369039;19;20089;-67
2022/07/31 09:08:17;;;;;;;2.80;2.58;;;26.40;1.00;;;;;;7369759;19;20018;-68
2022/07/31 09:10:47;;;;;;;4.38;2.38;;;25.80;1.00;;;;;;7368462;19;20007;-67
2022/07/31 09:13:20;;;;;;;4.30;2.70;;;25.70;1.00;;;;;;7369675;19;20034;-65
2022/07/31 09:15:52;;;;;;;3.17;2.80;;;25.70;1.00;;;;;;7390603;19;20085;-66
2022/07/31 09:18:23;;;;;;;3.25;2.30;;;25.80;1.00;;;;;;7369582;19;20006;-66
2022/07/31 09:21:01;;;;;;;2.72;2.20;;;26.40;1.00;;;;;;7368445;19;20010;-65
2022/07/31 09:23:32;;;;;;;2.88;2.45;;;26.40;1.00;;;;;;7369431;19;20018;-66
2022/07/31 09:26:04;;;;;;;4.53;2.60;;;26.90;1.00;;;;;;7366510;19;20014;-65
2022/07/31 09:28:35;;;;;;;3.67;2.50;;;26.90;1.00;;;;;;7369697;19;20098;-66
2022/07/31 09:31:06;;;;;;;4.55;2.60;;;27.00;1.00;;;;;;7366074;19;20035;-66
2022/07/31 09:33:38;;;;;;;5.38;2.80;;;27.60;1.00;;;;;;7389238;19;20077;-65
2022/07/31 09:36:17;;;;;;;4.32;2.30;;;27.70;1.00;;;;;;7365004;19;20025;-65
2022/07/31 09:38:47;;;;;;;4.78;2.40;;;27.90;1.00;;;;;;7368685;19;20472;-66
2022/07/31 09:41:18;;;;;;;3.30;1.80;;;27.70;1.00;;;;;;7367119;19;20006;-67
2022/07/31 09:44:08;;;;;;;3.92;1.77;;;27.70;1.00;;;;;;7368507;19;20006;-65
2022/07/31 09:46:51;;;;;;;3.42;1.98;;;27.20;1.00;;;;;;7366950;19;20031;-66
2022/07/31 09:49:32;;;;;;;1.75;1.65;;;27.20;1.00;;;;;;7367875;19;20106;-66
2022/07/31 09:52:06;;;;;;;2.30;1.67;;;27.00;1.00;;;;;;7371445;19;20025;-67
2022/07/31 09:54:35;;;;;;;1.70;1.60;;;27.00;1.00;;;;;;7390650;19;20073;-66
2022/07/31 09:57:13;;;;;;;2.72;1.88;;;27.40;1.00;;;;;;7366009;19;20078;-66
2022/07/31 09:59:43;;;;;;;5.15;1.80;;;27.70;1.00;;;;;;7369194;19;20018;-66
2022/07/31 10:02:16;;;;;;;5.00;1.73;;;28.20;1.00;;;;;;7367470;19;20090;-66
2022/07/31 10:04:47;;;;;;;5.35;1.85;;;28.60;1.00;;;;;;7368324;19;20090;-65
2022/07/31 10:07:21;;;;;;;2.42;1.90;;;28.50;1.00;;;;;;7359846;19;20504;-67
2022/07/31 10:10:02;;;;;;;2.47;1.90;;;28.10;1.00;;;;;;7375152;19;20021;-67
2022/07/31 10:12:35;;;;;;;2.47;2.08;;;28.30;1.00;;;;;;7388978;19;20345;-66
2022/07/31 10:15:13;;;;;;;3.35;1.98;;;28.10;1.00;;;;;;7366605;19;20068;-66
2022/07/31 10:17:50;;;;;;;3.13;1.92;;;28.20;1.00;;;;;;7366087;19;20056;-65
2022/07/31 10:20:23;;;;;;;2.10;1.90;;;27.70;1.00;;;;;;7365606;19;20094;-66
2022/07/31 10:23:00;;;;;;;2.35;1.60;;;28.30;1.00;;;;;;7365391;19;20010;-65
2022/07/31 10:25:31;;;;;;;2.47;1.50;;;28.40;1.00;;;;;;7366599;19;20086;-66
2022/07/31 10:28:02;;;;;;;1.90;1.60;;;28.40;1.00;;;;;;7387696;19;20106;-66
2022/07/31 10:30:32;;;;;;;2.13;1.60;;;28.70;1.00;;;;;;7367983;19;20031;-65
2022/07/31 10:33:05;;;;;;;1.95;1.27;;;28.10;1.00;;;;;;7367063;19;20401;-67
2022/07/31 10:36:03;;;;;;;4.35;1.50;;;27.90;1.00;;;;;;7365116;19;20465;-67
2022/07/31 10:38:42;;;;;;;3.45;1.67;;;28.30;1.00;;;;;;7366143;19;20023;-66
2022/07/31 10:41:19;;;;;;;2.67;1.60;;;28.40;1.00;;;;;;7366054;19;20073;-66
2022/07/31 10:43:52;;;;;;;1.55;1.42;;;28.70;1.00;;;;;;7366588;19;20478;-66
2022/07/31 10:46:29;;;;;;;4.45;1.20;;;28.90;1.00;;;;;;7364423;19;20014;-66
2022/07/31 10:48:59;;;;;;;2.85;1.52;;;28.40;1.00;;;;;;7383454;19;20038;-66
2022/07/31 10:51:47;;;;;;;3.33;1.45;;;28.60;1.00;;;;;;7363736;19;20007;-66
2022/07/31 10:54:19;;;;;;;2.20;1.40;;;29.00;1.00;;;;;;7362727;19;20475;-66
2022/07/31 10:56:49;;;;;;;2.85;1.50;;;29.30;1.00;;;;;;7360505;19;20343;-66
2022/07/31 10:59:29;;;;;;;3.83;1.58;;;28.40;1.00;;;;;;7366373;19;20014;-66
2022/07/31 11:02:00;;;;;;;7.82;1.60;;;28.80;1.00;;;;;;7369578;19;20010;-66
2022/07/31 11:04:33;;;;;;;2.58;1.60;;;28.60;1.00;;;;;;7373413;19;20026;-67
2022/07/31 11:07:03;;;;;;;2.55;1.27;;;28.90;1.00;;;;;;7374588;19;20565;-67
2022/07/31 11:09:36;;;;;;;2.65;1.50;;;28.40;1.00;;;;;;7395069;19;20029;-67
2022/07/31 11:12:20;;;;;;;2.05;1.60;;;29.00;1.00;;;;;;7373331;19;20038;-67
2022/07/31 11:14:50;;;;;;;1.83;1.33;;;29.30;1.00;;;;;;7371999;19;20067;-67
2022/07/31 11:17:20;;;;;;;3.38;1.40;;;29.50;1.00;;;;;;7372150;19;20097;-66
2022/07/31 11:20:20;;;;;;;2.65;1.67;;;29.00;1.00;;;;;;7374252;19;20013;-66
2022/07/31 11:23:03;;;;;;;4.45;1.83;;;29.50;1.00;;;;;;7371837;19;20011;-66
2022/07/31 11:25:37;;;;;;;3.22;1.42;;;29.70;1.00;;;;;;7373348;19;20537;-66
2022/07/31 11:28:17;;;;;;;2.78;1.90;;;29.40;1.00;;;;;;7371502;19;20018;-67
2022/07/31 11:30:52;;;;;;;1.80;1.33;;;29.20;1.00;;;;;;7394855;19;20038;-69
2022/07/31 11:33:33;;;;;;;2.15;1.38;;;29.10;1.00;;;;;;7372727;19;20122;-68
2022/07/31 11:36:13;;;;;;;5.07;1.73;;;29.40;1.00;;;;;;7370006;19;20025;-68
2022/07/31 11:38:45;;;;;;;2.53;1.42;;;30.30;1.00;;;;;;7372183;19;20078;-70
2022/07/31 11:41:20;;;;;;;2.33;1.60;;;30.20;1.00;;;;;;7372895;19;20034;-68
2022/07/31 11:43:53;;;;;;;3.15;1.45;;;29.90;1.00;;;;;;7372520;19;20014;-68
2022/07/31 11:46:27;;;;;;;2.20;1.27;;;29.70;1.00;;;;;;7371863;19;20051;-69
2022/07/31 11:48:58;;;;;;;2.15;1.52;;;29.80;1.00;;;;;;7392877;19;20006;-68
2022/07/31 11:51:29;;;;;;;6.70;2.35;;;29.80;1.00;;;;;;7372685;19;20070;-72
2022/07/31 11:53:59;;;;;;;1.92;1.77;;;28.80;1.00;;;;;;7370825;19;20006;-71
2022/07/31 11:56:32;;;;;;;1.77;1.50;;;29.10;1.00;;;;;;7370447;19;20011;-72
2022/07/31 11:59:02;;;;;;;3.20;1.50;;;28.90;1.00;;;;;;7370220;19;20085;-71
2022/07/31 12:01:34;;;;;;;1.52;1.38;;;29.30;1.00;;;;;;7371766;19;20041;-71
2022/07/31 12:04:04;;;;;;;2.58;1.38;;;29.80;1.00;;;;;;7372057;19;20780;-72
2022/07/31 12:06:38;;;;;;;1.95;1.60;;;29.80;1.00;;;;;;7392100;19;20007;-72
2022/07/31 12:09:09;;;;;;;1.83;1.42;;;29.80;1.00;;;;;;7369395;19;20014;-72
2022/07/31 12:12:02;;;;;;;2.95;1.52;;;29.50;1.00;;;;;;7371116;19;20014;-73
2022/07/31 12:14:34;;;;;;;3.80;1.37;;;29.90;1.00;;;;;;7372551;19;20082;-71
2022/07/31 12:17:06;;;;;;;5.95;2.22;;;30.20;1.00;;;;;;7370792;19;20530;-72
2022/07/31 12:19:37;;;;;;;1.70;1.52;;;30.10;1.00;;;;;;7370879;19;20111;-71
2022/07/31 12:22:16;;;;;;;2.33;1.80;;;29.80;1.00;;;;;;7371760;19;20037;-71
2022/07/31 12:24:46;;;;;;;1.58;1.33;;;29.40;1.00;;;;;;7392642;19;20090;-72
2022/07/31 12:27:19;;;;;;;4.15;1.38;;;30.20;1.00;;;;;;7368686;19;20469;-71
2022/07/31 12:29:49;;;;;;;7.80;1.80;;;30.80;1.00;;;;;;7370669;19;20017;-71
2022/07/31 12:32:26;;;;;;;2.47;1.52;;;30.80;1.00;;;;;;7371259;19;20066;-71
2022/07/31 12:35:04;;;;;;;2.55;1.60;;;30.90;1.00;;;;;;7370577;19;20070;-72
2022/07/31 12:37:44;;;;;;;2.35;1.60;;;30.30;1.00;;;;;;7369202;19;20040;-71
2022/07/31 12:40:25;;;;;;;2.25;1.55;;;30.40;1.00;;;;;;7370403;19;20385;-72
2022/07/31 12:42:58;;;;;;;3.42;1.27;;;30.20;1.00;;;;;;7393250;19;20525;-72
2022/07/31 12:45:33;;;;;;;2.63;1.50;;;29.40;1.00;;;;;;7371209;19;20074;-72
2022/07/31 12:48:04;;;;;;;2.42;1.38;;;29.00;1.00;;;;;;7368582;19;20283;-73
2022/07/31 12:50:35;;;;;;;2.90;1.38;;;29.60;1.00;;;;;;7369046;19;20094;-71
2022/07/31 12:53:08;;;;;;;2.75;1.52;;;29.40;1.00;;;;;;7370025;19;20155;-71
2022/07/31 12:55:38;;;;;;;1.98;1.50;;;29.80;1.00;;;;;;7368127;19;20470;-73
2022/07/31 12:58:11;;;;;;;4.85;1.65;;;29.70;1.00;;;;;;7369308;19;20082;-72
2022/07/31 13:00:41;;;;;;;1.83;1.60;;;30.10;1.00;;;;;;7391640;19;20353;-70
2022/07/31 13:03:11;;;;;;;2.67;1.40;;;29.90;1.00;;;;;;7369411;19;20011;-71
2022/07/31 13:05:41;;;;;;;3.65;1.30;;;29.60;1.00;;;;;;7367920;19;20015;-71
2022/07/31 13:08:11;;;;;;;3.08;1.35;;;29.70;1.00;;;;;;7369418;19;20045;-71
2022/07/31 13:10:41;;;;;;;1.67;1.20;;;30.20;1.00;;;;;;7368884;19;20013;-72
2022/07/31 13:13:14;;;;;;;1.98;1.33;;;30.30;1.00;;;;;;7369274;19;20021;-71
2022/07/31 13:15:44;;;;;;;2.28;1.48;;;30.30;1.00;;;;;;7390489;19;20032;-71
2022/07/31 13:18:14;;;;;;;3.53;1.38;;;30.10;1.00;;;;;;7368775;19;20094;-71
2022/07/31 13:20:44;;;;;;;3.03;1.40;;;30.30;1.00;;;;;;7368887;19;20027;-72
2022/07/31 13:23:14;;;;;;;2.63;1.50;;;30.10;1.00;;;;;;7367192;19;20081;-71
2022/07/31 13:25:46;;;;;;;1.67;1.40;;;30.00;1.00;;;;;;7367758;19;20149;-71
2022/07/31 13:28:19;;;;;;;2.03;1.42;;;29.90;1.00;;;;;;7368215;19;20014;-71
2022/07/31 13:30:49;;;;;;;2.67;1.15;;;30.20;1.00;;;;;;7390020;19;20010;-71
2022/07/31 13:33:23;;;;;;;1.75;1.50;;;30.70;1.00;;;;;;7368542;19;20048;-72
2022/07/31 13:35:53;;;;;;;2.67;1.40;;;30.80;1.00;;;;;;7366990;19;20023;-73